createdAt,value
2022-10-16T00:01:34.104Z,83.37
2022-10-16T00:04:01.446Z,83.68
2022-10-16T00:06:30.367Z,83.49
2022-10-16T00:08:57.727Z,83.49
2022-10-16T00:11:27.324Z,83.32
2022-10-16T00:13:58.142Z,83.46
2022-10-16T00:16:25.716Z,83.43
2022-10-16T00:18:52.706Z,83.35
2022-10-16T00:21:22.466Z,83.54
2022-10-16T00:23:57.746Z,83.70
2022-10-16T00:26:24.792Z,83.39
2022-10-16T00:28:52.795Z,83.68
2022-10-16T00:31:22.544Z,83.79
2022-10-16T00:33:50.165Z,83.70
2022-10-16T00:36:19.686Z,83.64
2022-10-16T00:38:47.151Z,83.65
2022-10-16T00:41:16.860Z,83.32
2022-10-16T00:43:50.035Z,83.78
2022-10-16T00:46:18.951Z,83.30
2022-10-16T00:49:07.209Z,83.36
2022-10-16T00:51:40.192Z,83.52
2022-10-16T00:54:16.926Z,83.70
2022-10-16T00:56:45.102Z,83.69
2022-10-16T00:59:17.607Z,83.33
2022-10-16T01:01:44.706Z,83.70
2022-10-16T01:04:11.706Z,83.58
2022-10-16T01:06:49.171Z,83.34
2022-10-16T01:09:26.983Z,83.39
2022-10-16T01:12:16.385Z,83.31
2022-10-16T01:14:56.225Z,83.56
2022-10-16T01:17:38.494Z,83.23
2022-10-16T01:20:27.825Z,83.48
2022-10-16T01:23:06.734Z,83.26
2022-10-16T01:25:38.946Z,83.54
2022-10-16T01:28:05.934Z,83.56
2022-10-16T01:30:34.017Z,83.32
2022-10-16T01:33:06.108Z,83.43
2022-10-16T01:35:42.872Z,83.32
2022-10-16T01:38:20.622Z,83.08
2022-10-16T01:40:52.755Z,83.13
2022-10-16T01:43:23.886Z,83.24
2022-10-16T01:45:51.093Z,83.42
2022-10-16T01:48:19.511Z,83.17
2022-10-16T01:51:03.227Z,83.28
2022-10-16T01:53:30.727Z,83.11
2022-10-16T01:55:59.586Z,83.26
2022-10-16T01:58:28.254Z,83.17
2022-10-16T02:00:56.359Z,83.11
2022-10-16T02:03:24.036Z,82.90
2022-10-16T02:05:55.716Z,82.92
2022-10-16T02:08:24.306Z,82.81
2022-10-16T02:10:51.475Z,82.78
2022-10-16T02:13:24.196Z,83.02
2022-10-16T02:15:51.313Z,82.85
2022-10-16T02:18:21.675Z,82.83
2022-10-16T02:20:57.754Z,82.97
2022-10-16T02:23:46.029Z,82.89
2022-10-16T02:26:15.918Z,82.93
2022-10-16T02:28:55.497Z,82.86
2022-10-16T02:31:28.787Z,82.89
2022-10-16T02:33:57.827Z,82.71
2022-10-16T02:36:25.025Z,83.06
2022-10-16T02:38:52.280Z,82.81
2022-10-16T02:41:19.825Z,82.77
2022-10-16T02:43:46.785Z,82.85
2022-10-16T02:46:13.856Z,82.81
2022-10-16T02:48:40.831Z,83.00
2022-10-16T02:51:07.910Z,82.88
2022-10-16T02:53:34.884Z,82.87
2022-10-16T02:56:01.824Z,83.12
2022-10-16T02:58:28.912Z,83.03
2022-10-16T03:00:56.451Z,83.19
2022-10-16T03:03:23.395Z,82.88
2022-10-16T03:05:51.424Z,83.15
2022-10-16T03:08:18.605Z,83.17
2022-10-16T03:10:45.767Z,83.11
2022-10-16T03:13:12.808Z,83.09
2022-10-16T03:15:39.834Z,83.14
2022-10-16T03:18:06.765Z,82.95
2022-10-16T03:20:33.948Z,83.03
2022-10-16T03:23:00.895Z,83.14
2022-10-16T03:25:27.904Z,83.02
2022-10-16T03:27:54.765Z,83.08
2022-10-16T03:30:22.234Z,83.27
2022-10-16T03:32:49.126Z,83.29
2022-10-16T03:35:16.317Z,83.06
2022-10-16T03:37:43.335Z,83.04
2022-10-16T03:40:10.984Z,82.93
2022-10-16T03:42:37.913Z,83.20
2022-10-16T03:45:05.696Z,83.22
2022-10-16T03:47:34.151Z,82.95
2022-10-16T03:50:01.632Z,83.22
2022-10-16T03:52:28.886Z,83.29
2022-10-16T03:54:56.182Z,83.26
2022-10-16T03:57:23.605Z,82.84
2022-10-16T03:59:50.951Z,83.24
2022-10-16T04:02:18.000Z,83.13
2022-10-16T04:04:44.980Z,83.14
2022-10-16T04:07:11.948Z,83.20
2022-10-16T04:09:38.990Z,82.99
2022-10-16T04:12:06.068Z,82.99
2022-10-16T04:14:32.954Z,83.07
2022-10-16T04:16:59.864Z,83.25
2022-10-16T04:19:27.566Z,83.16
2022-10-16T04:21:55.274Z,83.19
2022-10-16T04:24:22.267Z,82.95
2022-10-16T04:26:49.238Z,82.96
2022-10-16T04:29:16.285Z,82.96
2022-10-16T04:31:43.251Z,83.08
2022-10-16T04:34:10.253Z,82.96
2022-10-16T04:36:37.195Z,82.98
2022-10-16T04:39:04.355Z,83.17
2022-10-16T04:41:31.297Z,82.84
2022-10-16T04:43:58.266Z,82.85
2022-10-16T04:46:25.166Z,82.97
2022-10-16T04:48:52.296Z,82.97
2022-10-16T04:51:20.009Z,83.07
2022-10-16T04:53:47.206Z,83.17
2022-10-16T04:56:14.322Z,82.98
2022-10-16T04:58:41.226Z,83.11
2022-10-16T05:01:08.264Z,82.86
2022-10-16T05:03:35.526Z,83.07
2022-10-16T05:06:02.546Z,82.90
2022-10-16T05:08:29.533Z,82.85
2022-10-16T05:10:56.605Z,83.14
2022-10-16T05:13:24.374Z,82.86
2022-10-16T05:15:51.310Z,82.92
2022-10-16T05:18:18.768Z,82.84
2022-10-16T05:20:45.663Z,82.94
2022-10-16T05:25:39.946Z,82.70
2022-10-16T05:28:06.938Z,83.05
2022-10-16T05:30:34.026Z,82.92
2022-10-16T05:33:00.968Z,82.85
2022-10-16T05:35:27.993Z,82.76
2022-10-16T05:37:55.238Z,82.79
2022-10-16T05:40:22.897Z,82.86
2022-10-16T05:42:50.083Z,82.89
2022-10-16T05:45:17.362Z,82.93
2022-10-16T05:47:44.731Z,82.84
2022-10-16T05:50:11.903Z,82.75
2022-10-16T05:52:38.903Z,82.64
2022-10-16T05:55:06.511Z,82.71
2022-10-16T05:57:33.560Z,82.43
2022-10-16T06:00:00.732Z,82.80
2022-10-16T06:02:27.927Z,82.80
2022-10-16T06:04:55.174Z,82.62
2022-10-16T06:07:23.627Z,82.87
2022-10-16T06:09:54.665Z,82.59
2022-10-16T06:12:21.726Z,82.63
2022-10-16T06:14:48.758Z,82.67
2022-10-16T06:17:16.172Z,82.74
2022-10-16T06:19:43.240Z,82.79
2022-10-16T06:22:10.407Z,82.91
2022-10-16T06:24:37.466Z,82.79
2022-10-16T06:27:05.419Z,82.94
2022-10-16T06:29:32.327Z,82.72
2022-10-16T06:31:59.395Z,83.08
2022-10-16T06:34:26.285Z,82.72
2022-10-16T06:36:53.369Z,82.78
2022-10-16T06:39:20.284Z,83.06
2022-10-16T06:41:47.279Z,83.00
2022-10-16T06:44:16.322Z,82.88
2022-10-16T06:46:43.346Z,82.75
2022-10-16T06:49:10.402Z,82.87
2022-10-16T06:51:43.254Z,83.08
2022-10-16T06:54:10.645Z,83.25
2022-10-16T06:56:37.913Z,83.19
2022-10-16T06:59:05.306Z,83.21
2022-10-16T07:01:33.190Z,83.14
2022-10-16T07:04:01.529Z,83.01
2022-10-16T07:06:28.804Z,83.15
2022-10-16T07:08:55.979Z,83.14
2022-10-16T07:11:24.430Z,83.26
2022-10-16T07:13:54.979Z,83.30
2022-10-16T07:16:25.651Z,83.15
2022-10-16T07:18:58.641Z,83.33
2022-10-16T07:21:27.386Z,83.43
2022-10-16T07:23:56.245Z,83.08
2022-10-16T07:26:24.365Z,83.08
2022-10-16T07:28:51.789Z,83.38
2022-10-16T07:31:20.448Z,83.35
2022-10-16T07:33:49.356Z,83.13
2022-10-16T07:36:18.719Z,83.38
2022-10-16T07:38:46.612Z,83.09
2022-10-16T07:41:15.790Z,83.43
2022-10-16T07:43:47.986Z,83.36
2022-10-16T07:46:15.606Z,83.21
2022-10-16T07:48:46.784Z,83.31
2022-10-16T07:51:16.102Z,83.33
2022-10-16T07:53:43.085Z,83.41
2022-10-16T07:56:10.671Z,83.20
2022-10-16T07:58:40.290Z,83.53
2022-10-16T08:01:12.689Z,83.12
2022-10-16T08:03:39.726Z,83.00
2022-10-16T08:06:06.649Z,83.30
2022-10-16T08:08:33.682Z,83.37
2022-10-16T08:11:00.986Z,83.14
2022-10-16T08:13:27.931Z,83.37
2022-10-16T08:15:55.533Z,83.23
2022-10-16T08:18:22.560Z,83.28
2022-10-16T08:20:55.814Z,83.34
2022-10-16T08:23:22.844Z,83.31
2022-10-16T08:25:49.930Z,83.14
2022-10-16T08:28:17.815Z,83.07
2022-10-16T08:30:44.849Z,83.28
2022-10-16T08:33:11.931Z,83.27
2022-10-16T08:35:38.991Z,82.99
2022-10-16T08:38:07.038Z,83.18
2022-10-16T08:40:35.732Z,83.12
2022-10-16T08:43:09.731Z,83.06
2022-10-16T08:45:45.995Z,82.89
2022-10-16T08:48:48.391Z,83.00
2022-10-16T08:51:41.729Z,83.18
2022-10-16T08:54:43.683Z,82.83
2022-10-16T08:57:17.559Z,83.04
2022-10-16T08:59:47.202Z,83.02
2022-10-16T09:02:32.976Z,82.79
2022-10-16T09:05:05.488Z,82.79
2022-10-16T09:07:39.927Z,82.96
2022-10-16T09:10:28.789Z,82.88
2022-10-16T09:13:12.982Z,82.73
2022-10-16T09:16:18.437Z,82.70
2022-10-16T09:18:50.056Z,82.73
2022-10-16T09:21:22.672Z,82.52
2022-10-16T09:23:50.385Z,82.80
2022-10-16T09:26:19.151Z,82.58
2022-10-16T09:28:46.541Z,82.65
2022-10-16T09:31:21.355Z,82.79
2022-10-16T09:33:55.214Z,82.58
2022-10-16T09:36:24.649Z,82.21
2022-10-16T09:38:51.650Z,82.40
2022-10-16T09:41:23.010Z,82.36
2022-10-16T09:43:54.987Z,82.40
2022-10-16T09:46:35.182Z,82.65
2022-10-16T09:49:05.890Z,82.33
2022-10-16T09:51:37.266Z,82.46
2022-10-16T09:54:16.051Z,82.39
2022-10-16T09:56:43.791Z,82.51
2022-10-16T09:59:13.846Z,82.45
2022-10-16T10:01:44.585Z,82.31
2022-10-16T10:04:11.718Z,82.31
2022-10-16T10:06:44.593Z,82.38
2022-10-16T10:09:52.693Z,82.30
2022-10-16T10:12:27.115Z,82.36
2022-10-16T10:14:57.034Z,82.28
2022-10-16T10:17:28.666Z,82.15
2022-10-16T10:19:58.229Z,82.16
2022-10-16T10:22:46.703Z,82.19
2022-10-16T10:25:13.625Z,82.29
2022-10-16T10:28:05.324Z,82.28
2022-10-16T10:30:43.433Z,82.16
2022-10-16T10:33:19.870Z,82.22
2022-10-16T10:36:21.249Z,82.28
2022-10-16T10:38:57.822Z,82.16
2022-10-16T10:41:31.700Z,82.18
2022-10-16T10:44:11.056Z,82.07
2022-10-16T10:47:04.055Z,82.22
2022-10-16T10:49:34.108Z,82.26
2022-10-16T10:52:33.079Z,82.04
2022-10-16T10:55:20.772Z,82.10
2022-10-16T10:58:05.753Z,82.02
2022-10-16T11:00:55.164Z,81.93
2022-10-16T11:03:27.914Z,81.79
2022-10-16T11:06:01.977Z,81.85
2022-10-16T11:09:06.853Z,81.67
2022-10-16T11:11:39.793Z,81.54
2022-10-16T11:14:12.676Z,81.22
2022-10-16T11:17:17.149Z,81.20
2022-10-16T11:19:48.315Z,81.06
2022-10-16T11:22:21.319Z,80.95
2022-10-16T11:24:55.214Z,80.72
2022-10-16T11:27:43.308Z,80.60
2022-10-16T11:30:31.919Z,80.51
2022-10-16T11:33:20.909Z,80.21
2022-10-16T11:36:10.209Z,79.96
2022-10-16T11:38:55.154Z,80.02
2022-10-16T11:41:43.629Z,79.60
2022-10-16T11:44:36.655Z,79.46
2022-10-16T11:50:40.006Z,79.04
2022-10-16T11:53:46.749Z,78.78
2022-10-16T11:56:23.063Z,78.55
2022-10-16T11:58:58.015Z,78.39
2022-10-16T12:01:43.331Z,78.29
2022-10-16T12:04:18.763Z,78.15
2022-10-16T12:06:50.560Z,78.07
2022-10-16T12:09:36.392Z,77.74
2022-10-16T12:12:04.742Z,77.59
2022-10-16T12:15:14.840Z,77.49
2022-10-16T12:17:41.241Z,76.94
2022-10-16T12:20:14.231Z,76.82
2022-10-16T12:23:15.120Z,76.56
2022-10-16T12:25:47.436Z,76.53
2022-10-16T12:28:17.429Z,76.36
2022-10-16T12:30:45.088Z,76.25
2022-10-16T12:33:57.446Z,75.94
2022-10-16T12:36:33.589Z,75.56
2022-10-16T12:39:01.429Z,75.55
2022-10-16T12:41:36.301Z,75.51
2022-10-16T12:44:03.907Z,75.04
2022-10-16T12:46:30.750Z,74.91
2022-10-16T12:49:17.579Z,74.62
2022-10-16T12:51:45.023Z,74.35
2022-10-16T12:54:35.493Z,74.07
2022-10-16T12:57:35.573Z,73.96
2022-10-16T13:00:23.768Z,73.64
2022-10-16T13:03:11.706Z,73.44
2022-10-16T13:05:58.164Z,73.35
2022-10-16T13:08:43.788Z,73.19
2022-10-16T13:11:28.850Z,73.08
2022-10-16T13:14:14.323Z,73.17
2022-10-16T13:17:21.602Z,72.72
2022-10-16T13:20:10.731Z,72.56
2022-10-16T13:23:00.711Z,72.30
2022-10-16T13:25:36.466Z,72.42
2022-10-16T13:28:03.714Z,72.00
2022-10-16T13:30:54.355Z,71.92
2022-10-16T13:33:32.359Z,72.03
2022-10-16T13:35:59.680Z,71.93
2022-10-16T13:38:28.854Z,71.79
2022-10-16T13:40:57.168Z,71.86
2022-10-16T13:43:30.384Z,71.86
2022-10-16T13:46:03.132Z,71.91
2022-10-16T13:48:31.241Z,71.83
2022-10-16T13:51:14.259Z,71.72
2022-10-16T13:53:41.848Z,71.65
2022-10-16T13:56:13.159Z,71.73
2022-10-16T13:58:40.448Z,71.66
2022-10-16T14:01:41.006Z,71.63
2022-10-16T14:04:12.987Z,71.72
2022-10-16T14:06:46.072Z,71.56
2022-10-16T14:09:22.385Z,71.74
2022-10-16T14:11:52.602Z,71.64
2022-10-16T14:14:23.345Z,71.64
2022-10-16T14:16:50.551Z,71.88
2022-10-16T14:19:31.813Z,71.81
2022-10-16T14:22:00.217Z,71.83
2022-10-16T14:24:31.879Z,71.98
2022-10-16T14:26:59.547Z,71.93
2022-10-16T14:29:28.610Z,72.13
2022-10-16T14:32:03.514Z,72.10
2022-10-16T14:34:41.099Z,72.24
2022-10-16T14:37:34.925Z,72.01
2022-10-16T14:40:03.598Z,72.25
2022-10-16T14:42:32.050Z,72.32
2022-10-16T14:44:59.309Z,72.37
2022-10-16T14:47:28.243Z,72.35
2022-10-16T14:49:57.100Z,72.49
2022-10-16T14:52:24.120Z,72.76
2022-10-16T14:54:55.788Z,72.91
2022-10-16T14:57:25.820Z,72.78
2022-10-16T14:59:53.318Z,72.77
2022-10-16T15:02:28.616Z,72.80
2022-10-16T15:04:55.869Z,72.91
2022-10-16T15:07:23.214Z,73.15
2022-10-16T15:09:50.234Z,73.26
2022-10-16T15:12:18.063Z,73.28
2022-10-16T15:14:45.084Z,73.50
2022-10-16T15:17:12.581Z,73.58
2022-10-16T15:19:39.830Z,73.77
2022-10-16T15:22:06.835Z,73.89
2022-10-16T15:24:33.869Z,74.07
2022-10-16T15:27:00.887Z,74.15
2022-10-16T15:29:28.243Z,74.15
2022-10-16T15:31:55.167Z,74.42
2022-10-16T15:34:22.110Z,74.38
2022-10-16T15:36:49.150Z,74.50
2022-10-16T15:39:18.830Z,74.69
2022-10-16T15:41:51.710Z,74.65
2022-10-16T15:44:19.278Z,74.84
2022-10-16T15:46:46.410Z,75.11
2022-10-16T15:49:14.190Z,75.00
2022-10-16T15:51:42.139Z,75.18
2022-10-16T15:54:09.851Z,75.55
2022-10-16T15:56:38.344Z,75.69
2022-10-16T15:59:05.947Z,75.47
2022-10-16T16:01:36.859Z,75.75
2022-10-16T16:04:10.992Z,76.04
2022-10-16T16:06:45.922Z,76.20
2022-10-16T16:09:14.694Z,76.00
2022-10-16T16:11:42.209Z,76.26
2022-10-16T16:14:11.969Z,76.22
2022-10-16T16:16:39.207Z,76.49
2022-10-16T16:19:10.604Z,76.62
2022-10-16T16:21:39.245Z,76.92
2022-10-16T16:24:09.487Z,76.99
2022-10-16T16:26:40.604Z,77.14
2022-10-16T16:29:08.713Z,77.04
2022-10-16T16:31:36.517Z,77.10
2022-10-16T16:34:04.230Z,77.21
2022-10-16T16:36:31.486Z,77.31
2022-10-16T16:38:59.073Z,77.79
2022-10-16T16:41:28.552Z,77.75
2022-10-16T16:43:55.930Z,77.92
2022-10-16T16:46:23.058Z,77.97
2022-10-16T16:48:54.594Z,78.27
2022-10-16T16:51:21.802Z,78.04
2022-10-16T16:53:50.851Z,78.13
2022-10-16T16:56:19.098Z,78.45
2022-10-16T16:58:47.503Z,78.49
2022-10-16T17:01:19.952Z,78.38
2022-10-16T17:03:50.937Z,78.68
2022-10-16T17:06:20.768Z,78.70
2022-10-16T17:08:48.868Z,78.57
2022-10-16T17:11:18.435Z,78.68
2022-10-16T17:13:45.736Z,78.81
2022-10-16T17:16:12.756Z,78.89
2022-10-16T17:18:39.870Z,79.13
2022-10-16T17:21:08.627Z,78.96
2022-10-16T17:23:37.135Z,79.21
2022-10-16T17:26:15.563Z,79.28
2022-10-16T17:28:43.473Z,79.36
2022-10-16T17:31:15.538Z,79.10
2022-10-16T17:33:43.811Z,79.43
2022-10-16T17:36:11.994Z,79.47
2022-10-16T17:38:39.105Z,79.64
2022-10-16T17:41:18.149Z,79.76
2022-10-16T17:43:45.568Z,79.88
2022-10-16T17:46:13.560Z,79.78
2022-10-16T17:48:42.367Z,79.77
2022-10-16T17:51:11.383Z,79.85
2022-10-16T17:53:39.585Z,79.89
2022-10-16T17:56:09.131Z,80.08
2022-10-16T17:58:36.902Z,80.06
2022-10-16T18:01:25.379Z,80.13
2022-10-16T18:03:57.649Z,80.26
2022-10-16T18:06:25.129Z,80.50
2022-10-16T18:08:53.376Z,80.37
2022-10-16T18:11:21.137Z,80.39
2022-10-16T18:13:48.328Z,80.68
2022-10-16T18:16:16.485Z,80.70
2022-10-16T18:18:48.054Z,80.96
2022-10-16T18:21:17.059Z,80.66
2022-10-16T18:23:50.691Z,81.05
2022-10-16T18:26:21.292Z,80.95
2022-10-16T18:28:48.819Z,80.94
2022-10-16T18:31:17.341Z,81.13
2022-10-16T18:33:48.972Z,81.10
2022-10-16T18:36:22.218Z,81.20
2022-10-16T18:38:49.705Z,81.18
2022-10-16T18:41:16.826Z,81.24
2022-10-16T18:43:44.204Z,81.23
2022-10-16T18:46:14.262Z,81.40
2022-10-16T18:48:43.683Z,81.30
2022-10-16T18:51:20.611Z,81.45
2022-10-16T18:53:50.370Z,81.54
2022-10-16T18:56:19.077Z,81.49
2022-10-16T18:58:51.723Z,81.48
2022-10-16T19:01:21.273Z,81.49
2022-10-16T19:04:09.296Z,81.53
2022-10-16T19:06:39.803Z,81.61
2022-10-16T19:09:07.344Z,81.73
2022-10-16T19:11:40.505Z,81.66
2022-10-16T19:14:09.402Z,81.71
2022-10-16T19:16:37.353Z,81.63
2022-10-16T19:19:07.722Z,81.70
2022-10-16T19:21:37.062Z,82.14
2022-10-16T19:24:04.847Z,82.10
2022-10-16T19:26:34.784Z,82.06
2022-10-16T19:29:07.318Z,82.12
2022-10-16T19:31:34.746Z,82.06
2022-10-16T19:34:04.521Z,82.11
2022-10-16T19:36:34.316Z,82.09
2022-10-16T19:39:06.150Z,82.14
2022-10-16T19:41:33.996Z,82.34
2022-10-16T19:44:02.734Z,82.22
2022-10-16T19:46:30.808Z,82.25
2022-10-16T19:48:59.950Z,82.22
2022-10-16T19:51:28.045Z,82.21
2022-10-16T19:53:57.392Z,82.23
2022-10-16T19:56:26.605Z,82.39
2022-10-16T19:58:55.682Z,82.39
2022-10-16T20:01:23.865Z,82.32
2022-10-16T20:03:51.144Z,82.41
2022-10-16T20:06:19.342Z,82.63
2022-10-16T20:08:49.358Z,82.78
2022-10-16T20:11:21.629Z,82.67
2022-10-16T20:13:49.407Z,82.62
2022-10-16T20:16:19.260Z,82.88
2022-10-16T20:18:47.567Z,82.86
2022-10-16T20:21:18.246Z,82.98
2022-10-16T20:23:47.285Z,83.21
2022-10-16T20:26:14.966Z,82.97
2022-10-16T20:28:42.917Z,83.01
2022-10-16T20:31:20.767Z,83.34
2022-10-16T20:33:47.903Z,83.15
2022-10-16T20:36:15.710Z,83.37
2022-10-16T20:38:43.144Z,83.15
2022-10-16T20:41:10.644Z,83.32
2022-10-16T20:43:41.114Z,83.32
2022-10-16T20:46:09.703Z,83.44
2022-10-16T20:48:37.172Z,83.43
2022-10-16T20:51:24.019Z,83.42
2022-10-16T20:53:58.951Z,83.56
2022-10-16T20:56:27.754Z,83.52
2022-10-16T20:58:54.776Z,83.44
2022-10-16T21:01:24.095Z,83.60
2022-10-16T21:03:53.734Z,83.66
2022-10-16T21:06:20.997Z,83.44
2022-10-16T21:08:48.089Z,83.62
2022-10-16T21:11:15.096Z,83.84
2022-10-16T21:13:42.737Z,83.70
2022-10-16T21:16:11.463Z,83.77
2022-10-16T21:18:44.054Z,83.97
2022-10-16T21:21:12.277Z,83.83
2022-10-16T21:23:39.387Z,84.07
2022-10-16T21:26:07.295Z,83.79
2022-10-16T21:28:34.480Z,83.73
2022-10-16T21:31:14.469Z,83.89
2022-10-16T21:33:41.785Z,83.70
2022-10-16T21:36:15.702Z,83.77
2022-10-16T21:38:43.030Z,83.81
2022-10-16T21:41:28.926Z,83.85
2022-10-16T21:43:57.315Z,83.71
2022-10-16T21:46:26.826Z,83.93
2022-10-16T21:48:58.393Z,84.04
2022-10-16T21:51:37.309Z,84.17
2022-10-16T21:54:06.463Z,84.06
2022-10-16T21:56:34.470Z,84.18
2022-10-16T21:59:01.446Z,84.01
2022-10-16T22:01:29.041Z,83.85
2022-10-16T22:03:56.056Z,84.14
2022-10-16T22:06:27.155Z,84.16
2022-10-16T22:08:56.546Z,84.17
2022-10-16T22:11:31.416Z,84.28
2022-10-16T22:13:58.603Z,83.96
2022-10-16T22:16:26.770Z,84.20
2022-10-16T22:18:58.004Z,84.09
2022-10-16T22:21:25.717Z,84.03
2022-10-16T22:23:52.725Z,84.06
2022-10-16T22:26:19.747Z,84.11
2022-10-16T22:28:46.833Z,84.34
2022-10-16T22:31:14.919Z,84.17
2022-10-16T22:33:42.462Z,84.21
2022-10-16T22:36:12.947Z,84.22
2022-10-16T22:38:40.511Z,84.05
2022-10-16T22:41:12.956Z,84.32
2022-10-16T22:43:43.149Z,83.96
2022-10-16T22:46:13.785Z,83.98
2022-10-16T22:48:41.592Z,84.20
2022-10-16T22:51:09.674Z,84.15
2022-10-16T22:53:36.712Z,84.10
2022-10-16T22:56:03.804Z,83.88
2022-10-16T22:58:30.966Z,83.92
2022-10-16T23:03:25.240Z,83.79
2022-10-16T23:05:52.269Z,84.10
2022-10-16T23:08:19.190Z,84.12
2022-10-16T23:10:47.682Z,83.96
2022-10-16T23:13:14.946Z,83.77
2022-10-16T23:15:43.112Z,83.92
2022-10-16T23:18:10.837Z,83.64
2022-10-16T23:20:41.727Z,83.98
2022-10-16T23:23:09.381Z,84.11
2022-10-16T23:25:36.767Z,83.60
2022-10-16T23:28:04.636Z,84.06
2022-10-16T23:30:31.862Z,83.72
2022-10-16T23:32:58.826Z,83.73
2022-10-16T23:35:25.815Z,84.46
2022-10-16T23:37:52.819Z,83.93
2022-10-16T23:40:19.815Z,83.52
2022-10-16T23:42:46.786Z,83.90
2022-10-16T23:45:13.693Z,83.88
2022-10-16T23:47:41.673Z,83.97
2022-10-16T23:50:09.705Z,84.05
2022-10-16T23:52:36.826Z,84.54
2022-10-16T23:55:04.566Z,83.74
2022-10-16T23:57:31.663Z,83.67
2022-10-16T23:59:58.707Z,84.02
